Time;durP1;ratioP1;P1;durP2;ratioP2;P2;SDS_P1;SDS_P2;PMS_P1;PMS_P2;Temp;Humidity;BMP_temperature;BMP_pressure;BME280_temperature;BME280_humidity;BME280_pressure;Samples;Min_cycle;Max_cycle;Signal;HPM_P1;HPM_P2
2022/04/20 00:00:34;;;;;;;8.65;6.68;;;7.60;99.90;;;;;;4985173;28;89749;-36
2022/04/20 00:03:00;;;;;;;6.63;6.03;;;7.60;99.90;;;;;;5003424;28;89170;-35
2022/04/20 00:05:25;;;;;;;13.50;6.97;;;7.60;99.90;;;;;;5003091;28;90211;-35
2022/04/20 00:07:51;;;;;;;8.80;6.25;;;7.60;99.90;;;;;;5002325;28;90606;-34
2022/04/20 00:10:17;;;;;;;8.02;6.47;;;7.50;99.90;;;;;;5003243;28;89994;-39
2022/04/20 00:12:43;;;;;;;7.68;6.22;;;7.50;99.90;;;;;;5002717;28;89946;-36
2022/04/20 00:15:09;;;;;;;8.07;7.05;;;7.50;99.90;;;;;;5003165;28;89513;-38
2022/04/20 00:17:34;;;;;;;8.27;6.25;;;7.50;99.90;;;;;;5002748;28;90284;-39
2022/04/20 00:20:00;;;;;;;11.18;6.65;;;7.50;99.90;;;;;;5000492;28;89789;-39
2022/04/20 00:22:25;;;;;;;16.17;7.72;;;7.40;99.90;;;;;;5002335;28;90048;-35
2022/04/20 00:24:51;;;;;;;9.48;6.57;;;7.30;99.90;;;;;;5001957;28;87989;-36
2022/04/20 00:27:17;;;;;;;7.57;6.57;;;7.30;99.90;;;;;;4983782;28;90598;-37
2022/04/20 00:29:42;;;;;;;10.23;7.25;;;7.20;99.90;;;;;;5001154;28;90987;-33
2022/04/20 00:32:08;;;;;;;13.18;7.55;;;7.10;99.90;;;;;;5014775;22;90425;-33
2022/04/20 00:34:34;;;;;;;17.90;7.63;;;7.10;99.90;;;;;;4942900;28;90390;-34
2022/04/20 00:36:59;;;;;;;10.10;7.13;;;7.00;99.90;;;;;;4941909;28;89913;-35
2022/04/20 00:39:25;;;;;;;9.43;7.75;;;7.00;99.90;;;;;;4924953;28;90434;-35
2022/04/20 00:41:52;;;;;;;9.52;7.07;;;7.00;99.90;;;;;;4942497;28;89625;-33
2022/04/20 00:44:19;;;;;;;9.25;7.53;;;7.00;99.90;;;;;;4942439;28;90022;-33
2022/04/20 00:46:47;;;;;;;12.20;7.95;;;7.00;99.90;;;;;;4942285;28;90273;-37
2022/04/20 00:49:14;;;;;;;8.15;7.35;;;7.00;99.90;;;;;;4924001;28;89214;-38
2022/04/20 00:51:56;;;;;;;11.18;7.32;;;6.90;99.90;;;;;;4924304;28;89739;-36
2022/04/20 00:54:22;;;;;;;12.80;7.97;;;6.90;99.90;;;;;;4942286;28;88974;-37
2022/04/20 00:56:47;;;;;;;10.40;7.60;;;6.80;99.90;;;;;;4941957;28;90223;-36
2022/04/20 00:59:14;;;;;;;9.43;8.05;;;6.90;99.90;;;;;;4942124;28;89804;-40
2022/04/20 01:01:40;;;;;;;7.72;6.90;;;6.90;99.90;;;;;;4942150;28;88281;-34
2022/04/20 01:04:05;;;;;;;8.15;7.07;;;6.90;99.90;;;;;;4941407;28;89954;-36
2022/04/20 01:06:31;;;;;;;9.18;8.10;;;6.90;99.90;;;;;;4942440;28;90183;-34
2022/04/20 01:08:57;;;;;;;8.05;7.30;;;6.90;99.90;;;;;;4941939;28;89686;-38
2022/04/20 01:11:23;;;;;;;9.85;8.85;;;6.90;99.90;;;;;;4941779;28;89845;-34
2022/04/20 01:13:48;;;;;;;10.15;8.30;;;6.80;99.90;;;;;;4941927;28;89580;-36
2022/04/20 01:16:14;;;;;;;9.93;8.02;;;6.80;99.90;;;;;;4941866;28;90510;-34
2022/04/20 01:18:43;;;;;;;11.15;8.55;;;6.80;99.90;;;;;;4941028;28;90434;-38
2022/04/20 01:21:10;;;;;;;10.57;9.48;;;6.80;99.90;;;;;;4942337;28;90467;-36
2022/04/20 01:23:36;;;;;;;10.30;8.50;;;6.80;99.90;;;;;;4941213;28;88535;-39
2022/04/20 01:26:06;;;;;;;11.60;8.75;;;6.70;99.90;;;;;;4941383;28;90662;-36
2022/04/20 01:28:32;;;;;;;11.63;9.40;;;6.70;99.90;;;;;;4941708;28;90118;-39
2022/04/20 01:30:58;;;;;;;10.00;7.10;;;6.60;99.90;;;;;;4941543;28;89826;-35
2022/04/20 01:33:23;;;;;;;11.77;8.35;;;6.60;99.90;;;;;;4941783;28;88032;-34
2022/04/20 01:35:49;;;;;;;11.35;8.23;;;6.60;99.90;;;;;;4941472;28;90206;-38
2022/04/20 01:38:15;;;;;;;9.30;7.80;;;6.60;99.90;;;;;;4941058;28;88441;-34
2022/04/20 01:40:40;;;;;;;11.38;8.38;;;6.60;99.90;;;;;;4941649;28;90048;-39
2022/04/20 01:43:06;;;;;;;9.90;7.57;;;6.50;99.90;;;;;;4941301;28;90360;-36
2022/04/20 01:45:31;;;;;;;11.75;9.40;;;6.50;99.90;;;;;;4941599;28;90327;-40
2022/04/20 01:47:57;;;;;;;10.30;8.63;;;6.50;99.90;;;;;;4940923;28;90112;-36
2022/04/20 01:50:22;;;;;;;12.35;8.02;;;6.50;99.90;;;;;;4940803;28;88976;-35
2022/04/20 01:52:49;;;;;;;8.55;7.65;;;6.40;99.90;;;;;;4941370;28;89947;-35
2022/04/20 01:55:16;;;;;;;10.10;9.10;;;6.40;99.90;;;;;;4941581;28;91740;-35
2022/04/20 01:57:41;;;;;;;17.00;9.30;;;6.40;99.90;;;;;;4923024;28;90746;-35
2022/04/20 02:00:07;;;;;;;9.30;8.27;;;6.40;99.90;;;;;;4941440;28;88670;-37
2022/04/20 02:02:37;;;;;;;13.77;8.50;;;6.50;99.90;;;;;;4923968;28;89855;-37
2022/04/20 02:05:08;;;;;;;9.57;7.88;;;6.50;99.90;;;;;;4940557;28;90466;-34
2022/04/20 02:07:34;;;;;;;11.38;7.88;;;6.40;99.90;;;;;;4940471;28;90356;-37
2022/04/20 02:10:00;;;;;;;10.82;8.15;;;6.40;99.90;;;;;;4940220;28;90482;-37
2022/04/20 02:12:26;;;;;;;9.80;7.22;;;6.40;99.90;;;;;;4941619;28;87846;-34
2022/04/20 02:14:52;;;;;;;12.00;9.95;;;6.40;99.90;;;;;;4941023;28;90257;-34
2022/04/20 02:17:18;;;;;;;10.82;8.95;;;6.30;99.90;;;;;;4940912;28;89613;-39
2022/04/20 02:19:43;;;;;;;11.93;7.82;;;6.20;99.90;;;;;;4940064;28;90498;-35
2022/04/20 02:22:09;;;;;;;10.80;8.57;;;6.20;99.90;;;;;;4940891;28;89081;-37
2022/04/20 02:24:34;;;;;;;9.73;7.90;;;6.20;99.90;;;;;;4941296;28;90459;-41
2022/04/20 02:27:00;;;;;;;11.77;8.93;;;6.20;99.90;;;;;;4940875;28;89850;-37
2022/04/20 02:29:26;;;;;;;11.60;8.88;;;6.10;99.90;;;;;;4940626;28;90403;-37
2022/04/20 02:31:51;;;;;;;13.05;9.18;;;6.10;99.90;;;;;;4939676;28;88725;-33
2022/04/20 02:34:17;;;;;;;10.32;8.55;;;6.20;99.90;;;;;;4940597;28;90035;-40
2022/04/20 02:36:42;;;;;;;10.82;9.57;;;6.10;99.90;;;;;;4939198;28;89684;-36
2022/04/20 02:39:08;;;;;;;12.43;9.48;;;6.10;99.90;;;;;;4940490;28;89359;-36
2022/04/20 02:41:36;;;;;;;12.23;8.75;;;6.10;99.90;;;;;;4941000;28;88785;-32
2022/04/20 02:44:04;;;;;;;15.85;9.43;;;6.10;99.90;;;;;;4940655;28;91019;-37
2022/04/20 02:46:29;;;;;;;13.70;9.47;;;6.00;99.90;;;;;;4940215;28;92679;-35
2022/04/20 02:48:55;;;;;;;10.30;8.73;;;6.00;99.90;;;;;;4940784;28;89864;-36
2022/04/20 02:51:21;;;;;;;12.05;9.63;;;5.90;99.90;;;;;;4941077;28;88968;-33
2022/04/20 02:53:46;;;;;;;9.43;8.43;;;6.00;99.90;;;;;;4940018;28;90178;-33
2022/04/20 02:56:12;;;;;;;12.30;8.68;;;5.90;99.90;;;;;;4940336;28;91509;-35
2022/04/20 02:58:38;;;;;;;11.10;8.90;;;5.90;99.90;;;;;;4939235;28;90512;-34
2022/04/20 03:01:03;;;;;;;16.25;10.23;;;5.90;99.90;;;;;;4940782;28;89531;-33
2022/04/20 03:03:29;;;;;;;12.02;9.45;;;5.80;99.90;;;;;;4939222;28;90653;-37
2022/04/20 03:05:55;;;;;;;10.95;9.35;;;5.80;99.90;;;;;;4939791;28;89667;-37
2022/04/20 03:08:22;;;;;;;16.13;9.27;;;5.70;99.90;;;;;;4939932;28;90238;-34
2022/04/20 03:10:48;;;;;;;9.18;7.95;;;5.70;99.90;;;;;;4940498;28;88674;-33
2022/04/20 03:13:13;;;;;;;9.85;8.45;;;5.70;99.90;;;;;;4940187;28;90661;-37
2022/04/20 03:15:39;;;;;;;12.27;9.65;;;5.60;99.90;;;;;;4940229;28;90206;-35
2022/04/20 03:18:04;;;;;;;14.80;8.82;;;5.60;99.90;;;;;;4940246;28;89992;-38
2022/04/20 03:20:30;;;;;;;11.05;9.73;;;5.70;99.90;;;;;;4940076;28;89722;-32
2022/04/20 03:22:56;;;;;;;13.05;9.07;;;5.70;99.90;;;;;;4939695;28;90274;-32
2022/04/20 03:25:21;;;;;;;11.70;8.77;;;5.70;99.90;;;;;;4940295;28;88521;-36
2022/04/20 03:27:47;;;;;;;10.38;9.20;;;5.60;99.90;;;;;;4939413;28;90114;-35
2022/04/20 03:30:14;;;;;;;11.60;9.13;;;5.50;99.90;;;;;;4940133;28;88911;-34
2022/04/20 03:32:40;;;;;;;11.52;9.40;;;5.50;99.90;;;;;;4939689;28;90273;-34
2022/04/20 03:35:06;;;;;;;11.80;9.57;;;5.40;99.90;;;;;;4939507;28;90478;-36
2022/04/20 03:37:32;;;;;;;11.77;9.18;;;5.40;99.90;;;;;;4923166;28;90094;-38
2022/04/20 03:39:59;;;;;;;12.63;9.32;;;5.40;99.90;;;;;;4940048;28;89366;-37
2022/04/20 03:42:25;;;;;;;11.27;9.90;;;5.40;99.90;;;;;;4939495;28;90555;-37
2022/04/20 03:44:51;;;;;;;12.68;9.98;;;5.40;99.90;;;;;;4939353;28;89649;-33
2022/04/20 03:47:17;;;;;;;11.20;8.98;;;5.40;99.90;;;;;;4938348;28;90112;-36
2022/04/20 03:49:42;;;;;;;13.68;8.60;;;5.30;99.90;;;;;;4939890;28;89691;-39
2022/04/20 03:52:08;;;;;;;13.88;8.50;;;5.30;99.90;;;;;;4939669;28;89968;-35
2022/04/20 03:54:37;;;;;;;11.98;9.50;;;5.20;99.90;;;;;;4939102;28;89668;-36
2022/04/20 03:57:03;;;;;;;14.65;9.20;;;5.10;99.90;;;;;;4939573;28;89880;-35
2022/04/20 03:59:29;;;;;;;15.63;8.90;;;5.10;99.90;;;;;;4940481;28;88976;-36
2022/04/20 04:01:55;;;;;;;13.00;9.65;;;5.00;99.90;;;;;;4939191;28;91136;-36
2022/04/20 04:04:20;;;;;;;10.15;8.90;;;5.00;99.90;;;;;;4939510;28;95086;-36
2022/04/20 04:06:47;;;;;;;9.68;8.68;;;4.90;99.90;;;;;;4938959;28;89043;-32
2022/04/20 04:09:12;;;;;;;13.50;10.30;;;4.90;99.90;;;;;;4938722;28;90191;-39
2022/04/20 04:11:38;;;;;;;11.18;9.05;;;4.80;99.90;;;;;;4938631;28;90459;-34
2022/04/20 04:14:04;;;;;;;11.57;9.50;;;4.70;99.90;;;;;;4939280;28;90535;-32
2022/04/20 04:16:29;;;;;;;11.00;9.45;;;4.70;99.90;;;;;;4940001;28;89977;-35
2022/04/20 04:18:55;;;;;;;10.70;9.23;;;4.70;99.90;;;;;;4938829;28;88866;-37
2022/04/20 04:21:21;;;;;;;15.40;9.57;;;4.70;99.90;;;;;;4939120;28;90042;-36
2022/04/20 04:23:49;;;;;;;14.63;10.75;;;4.60;99.90;;;;;;4939451;28;91311;-33
2022/04/20 04:26:15;;;;;;;14.82;9.75;;;4.60;99.90;;;;;;4941980;28;89002;-35
2022/04/20 04:28:40;;;;;;;17.10;10.52;;;4.50;99.90;;;;;;4942166;28;89251;-35
2022/04/20 04:31:07;;;;;;;17.48;9.70;;;4.60;99.90;;;;;;4941671;28;90629;-34
2022/04/20 04:33:34;;;;;;;15.75;9.68;;;4.60;99.90;;;;;;4941752;28;90586;-33
2022/04/20 04:36:03;;;;;;;13.47;10.70;;;4.70;99.90;;;;;;4942601;28;90671;-34
2022/04/20 04:38:28;;;;;;;10.20;8.85;;;4.80;99.90;;;;;;4942588;28;90073;-33
2022/04/20 04:40:54;;;;;;;18.20;9.27;;;4.90;99.90;;;;;;4942715;28;90343;-34
2022/04/20 04:43:20;;;;;;;13.10;10.20;;;5.00;99.90;;;;;;4942018;28;97298;-34
2022/04/20 04:48:36;;;;;;;14.25;11.52;;;5.10;99.90;;;;;;4942380;28;89714;-32
2022/04/20 04:51:02;;;;;;;11.77;9.38;;;5.20;99.90;;;;;;4941684;28;90192;-36
2022/04/20 04:53:28;;;;;;;12.98;8.85;;;5.40;99.90;;;;;;4942038;28;89750;-38
2022/04/20 04:55:54;;;;;;;13.65;9.70;;;5.60;99.90;;;;;;4942159;28;90062;-33
2022/04/20 04:58:20;;;;;;;12.52;8.82;;;5.60;99.90;;;;;;4941717;28;89035;-34
2022/04/20 05:00:46;;;;;;;11.70;9.65;;;5.50;99.90;;;;;;4941672;28;94967;-35
2022/04/20 05:03:14;;;;;;;11.38;9.30;;;5.30;99.90;;;;;;4942084;28;89678;-33
2022/04/20 05:05:41;;;;;;;11.07;9.93;;;5.20;99.90;;;;;;4960991;28;88938;-33
2022/04/20 05:08:07;;;;;;;10.88;9.75;;;5.20;99.90;;;;;;4980343;28;90115;-33
2022/04/20 05:10:33;;;;;;;10.75;9.68;;;5.20;99.90;;;;;;4980641;28;89982;-34
2022/04/20 05:13:00;;;;;;;15.30;10.35;;;5.20;99.90;;;;;;4981333;28;89993;-37
2022/04/20 05:15:26;;;;;;;11.57;9.77;;;5.30;99.90;;;;;;4981171;28;89503;-33
2022/04/20 05:17:52;;;;;;;10.75;9.63;;;5.40;99.90;;;;;;4981542;28;88725;-32
2022/04/20 05:20:19;;;;;;;10.50;9.25;;;5.50;99.90;;;;;;4980763;28;90425;-34
2022/04/20 05:22:46;;;;;;;11.90;10.27;;;5.60;99.90;;;;;;4980041;28;90696;-36
2022/04/20 05:25:11;;;;;;;11.27;9.27;;;5.70;99.90;;;;;;4980661;28;90297;-34
2022/04/20 05:27:37;;;;;;;12.43;9.32;;;5.70;99.90;;;;;;4980405;28;89108;-35
2022/04/20 05:30:04;;;;;;;11.48;9.00;;;5.90;99.90;;;;;;4981031;28;90232;-37
2022/04/20 05:32:30;;;;;;;12.18;10.15;;;5.80;99.90;;;;;;4974427;28;90624;-35
2022/04/20 05:34:56;;;;;;;10.30;9.25;;;5.80;99.90;;;;;;4979123;28;89588;-35
2022/04/20 05:42:51;;;;;;;12.32;9.98;;;5.80;99.90;;;;;;4980010;28;89634;-38
2022/04/20 05:45:16;;;;;;;15.10;9.80;;;5.80;99.90;;;;;;4980105;28;90700;-36
2022/04/20 05:47:42;;;;;;;10.30;9.27;;;5.70;99.90;;;;;;4979773;28;89138;-36
2022/04/20 05:50:08;;;;;;;9.77;8.88;;;5.80;99.90;;;;;;4981000;28;90332;-33
2022/04/20 05:52:33;;;;;;;11.40;10.18;;;5.80;99.90;;;;;;4980407;28;91116;-38
2022/04/20 05:54:59;;;;;;;17.10;9.65;;;5.90;99.90;;;;;;4980069;28;89479;-36
2022/04/20 05:57:24;;;;;;;20.08;10.00;;;5.90;99.90;;;;;;4980104;28;89005;-36
2022/04/20 05:59:50;;;;;;;10.95;9.77;;;5.90;99.90;;;;;;4979289;28;90285;-36
2022/04/20 06:02:16;;;;;;;11.55;10.20;;;6.00;99.90;;;;;;4980728;28;91427;-34
2022/04/20 06:04:42;;;;;;;10.80;9.68;;;6.10;99.90;;;;;;4979904;28;89169;-35
2022/04/20 06:07:07;;;;;;;13.88;9.45;;;6.20;99.90;;;;;;4980410;28;87578;-34
2022/04/20 06:09:33;;;;;;;17.17;9.68;;;6.30;99.90;;;;;;4979691;28;90064;-37
2022/04/20 06:11:59;;;;;;;13.57;9.25;;;6.40;99.90;;;;;;4979541;28;90462;-34
2022/04/20 06:14:24;;;;;;;10.23;9.18;;;6.50;99.90;;;;;;4980519;28;89435;-34
2022/04/20 06:16:50;;;;;;;14.88;10.27;;;6.60;99.90;;;;;;4962983;28;90110;-33
2022/04/20 06:19:16;;;;;;;11.32;10.13;;;6.60;99.90;;;;;;4979682;28;91113;-33
2022/04/20 06:21:42;;;;;;;14.95;10.27;;;6.80;99.90;;;;;;4978752;28;89704;-33
2022/04/20 06:24:07;;;;;;;13.02;9.63;;;6.90;99.90;;;;;;4979727;28;90436;-32
2022/04/20 06:26:33;;;;;;;15.05;10.63;;;7.00;99.90;;;;;;4979943;28;89374;-36
2022/04/20 06:28:58;;;;;;;17.30;9.93;;;7.20;99.90;;;;;;4979816;28;90016;-38
2022/04/20 06:31:24;;;;;;;11.20;9.15;;;7.30;99.90;;;;;;4976857;28;89577;-35
2022/04/20 06:33:49;;;;;;;12.90;10.93;;;7.40;99.90;;;;;;4961702;28;89975;-38
2022/04/20 06:36:15;;;;;;;13.00;8.57;;;7.50;99.90;;;;;;4977241;28;89484;-34
2022/04/20 06:38:40;;;;;;;14.63;9.52;;;7.60;99.90;;;;;;4977761;28;94056;-34
2022/04/20 06:41:06;;;;;;;11.63;9.90;;;7.70;99.90;;;;;;4978517;28;89993;-34
2022/04/20 06:43:32;;;;;;;11.77;9.20;;;7.90;99.90;;;;;;4977796;28;88463;-32
2022/04/20 06:45:58;;;;;;;12.77;9.50;;;8.00;99.90;;;;;;4977664;28;89241;-36
2022/04/20 06:48:23;;;;;;;10.07;8.57;;;8.30;99.90;;;;;;4976764;28;89914;-34
2022/04/20 06:50:50;;;;;;;11.30;9.68;;;8.40;99.90;;;;;;4977075;28;89580;-35
2022/04/20 06:58:45;;;;;;;12.40;9.63;;;8.80;99.90;;;;;;4977329;28;90765;-37
2022/04/20 07:01:11;;;;;;;12.77;9.55;;;9.10;99.90;;;;;;4977126;28;90839;-33
2022/04/20 07:03:38;;;;;;;14.13;9.73;;;9.20;99.90;;;;;;4959413;28;89349;-35
2022/04/20 07:06:04;;;;;;;16.23;9.55;;;9.40;99.90;;;;;;4977862;28;88900;-36
2022/04/20 07:08:31;;;;;;;11.73;9.43;;;9.60;99.90;;;;;;4959254;28;92308;-34
2022/04/20 07:10:57;;;;;;;10.30;9.10;;;9.80;99.90;;;;;;4976745;28;89785;-38
2022/04/20 07:13:23;;;;;;;12.63;8.13;;;9.80;99.90;;;;;;4977163;28;89322;-35
2022/04/20 07:15:49;;;;;;;11.77;9.25;;;10.00;99.90;;;;;;4977432;28;88704;-35
2022/04/20 07:18:15;;;;;;;9.00;8.15;;;10.10;99.90;;;;;;4977316;28;90261;-36
2022/04/20 07:20:41;;;;;;;9.25;8.25;;;10.20;99.90;;;;;;4976902;28;89560;-35
2022/04/20 07:23:08;;;;;;;8.20;7.38;;;10.20;99.90;;;;;;4977348;28;89977;-36
2022/04/20 07:25:33;;;;;;;7.82;6.28;;;10.50;99.90;;;;;;4976838;28;88210;-36
2022/04/20 07:27:59;;;;;;;10.40;7.03;;;10.60;99.90;;;;;;4977600;28;90249;-34
2022/04/20 07:30:28;;;;;;;8.38;7.57;;;10.70;99.90;;;;;;4958790;28;89782;-37
2022/04/20 07:32:54;;;;;;;6.82;6.18;;;10.70;99.90;;;;;;4977083;28;89507;-36
2022/04/20 07:35:19;;;;;;;6.60;5.57;;;10.80;99.90;;;;;;4977453;28;88962;-37
2022/04/20 07:37:45;;;;;;;14.02;6.80;;;10.90;99.90;;;;;;4976092;28;90039;-37
2022/04/20 07:40:12;;;;;;;7.60;6.90;;;11.10;99.90;;;;;;4977858;28;89669;-35
2022/04/20 07:42:38;;;;;;;7.68;6.32;;;11.10;99.90;;;;;;4977767;28;88264;-33
2022/04/20 07:45:05;;;;;;;7.72;6.13;;;11.30;99.90;;;;;;4976885;28;89389;-33
2022/04/20 07:47:30;;;;;;;9.18;7.03;;;11.30;91.50;;;;;;4976825;28;91663;-34
2022/04/20 07:52:41;;;;;;;8.10;6.80;;;11.60;91.30;;;;;;4977294;28;90890;-32
2022/04/20 07:55:21;;;;;;;9.43;7.05;;;11.70;96.50;;;;;;4977497;28;88481;-36
2022/04/20 07:57:48;;;;;;;5.68;4.78;;;11.80;88.70;;;;;;4977084;28;90227;-32
2022/04/20 08:00:15;;;;;;;7.18;5.25;;;11.70;77.20;;;;;;4980696;28;89770;-35
2022/04/20 08:02:41;;;;;;;6.55;5.88;;;11.80;83.30;;;;;;4979821;28;89424;-31
2022/04/20 08:05:07;;;;;;;6.35;5.65;;;12.10;81.70;;;;;;4981032;28;88212;-34
2022/04/20 08:07:34;;;;;;;8.52;5.35;;;12.30;83.40;;;;;;4979924;28;89966;-36
2022/04/20 08:10:00;;;;;;;7.50;5.53;;;12.50;78.60;;;;;;4979469;28;91130;-34
2022/04/20 08:12:28;;;;;;;8.90;5.38;;;12.40;70.20;;;;;;4980515;28;89174;-36
2022/04/20 08:14:54;;;;;;;5.30;4.80;;;12.50;75.40;;;;;;4980224;28;89606;-33
2022/04/20 08:17:20;;;;;;;10.00;5.97;;;12.60;75.80;;;;;;4979689;28;90440;-33
2022/04/20 08:19:45;;;;;;;5.72;4.70;;;12.80;68.60;;;;;;4980018;28;90154;-36
2022/04/20 08:22:14;;;;;;;5.28;4.78;;;12.70;66.10;;;;;;4979312;28;93402;-36
2022/04/20 08:24:43;;;;;;;;;;;12.80;64.90;;;;;;4962533;28;89467;-35
2022/04/20 08:27:14;;;;;;;5.63;5.13;;;13.00;64.90;;;;;;4980587;28;90126;-35
2022/04/20 08:29:40;;;;;;;4.57;4.18;;;13.00;63.30;;;;;;4979902;28;89702;-36
2022/04/20 08:32:06;;;;;;;6.68;4.78;;;13.00;62.50;;;;;;4979802;28;89439;-36
2022/04/20 08:34:32;;;;;;;5.72;4.78;;;12.80;61.10;;;;;;4979806;28;88430;-32
2022/04/20 08:36:57;;;;;;;5.68;4.45;;;13.30;65.00;;;;;;4979438;28;91367;-34
2022/04/20 08:39:23;;;;;;;6.28;4.03;;;13.50;62.60;;;;;;4979234;28;90596;-35
2022/04/20 08:41:49;;;;;;;3.95;3.42;;;13.20;59.80;;;;;;4979337;28;95844;-33
2022/04/20 08:44:24;;;;;;;6.30;3.70;;;13.40;55.80;;;;;;4979660;28;88865;-37
2022/04/20 08:46:51;;;;;;;4.43;3.13;;;13.50;58.70;;;;;;4979237;28;90260;-34
2022/04/20 08:49:17;;;;;;;8.15;3.13;;;13.30;57.30;;;;;;4978862;28;90025;-38
2022/04/20 08:54:28;;;;;;;6.95;4.47;;;13.40;57.40;;;;;;4980119;28;89080;-35
2022/04/20 08:59:40;;;;;;;4.10;3.70;;;13.70;59.20;;;;;;4979583;28;89923;-34
2022/04/20 09:02:06;;;;;;;6.53;3.72;;;14.00;53.80;;;;;;4979756;28;89555;-33
2022/04/20 09:04:32;;;;;;;4.82;3.03;;;13.80;55.00;;;;;;4978652;28;89715;-38
2022/04/20 09:06:58;;;;;;;3.05;2.78;;;13.80;54.00;;;;;;4979663;28;91458;-36
2022/04/20 09:09:29;;;;;;;3.95;3.55;;;13.80;51.20;;;;;;4978453;28;90115;-37
2022/04/20 09:11:57;;;;;;;5.35;3.22;;;13.90;51.90;;;;;;4978749;28;88397;-33
2022/04/20 09:14:24;;;;;;;;;;;14.00;53.00;;;;;;4980223;28;89167;-34
2022/04/20 09:16:54;;;;;;;4.53;3.45;;;13.80;50.70;;;;;;4980789;28;89062;-35
2022/04/20 09:19:27;;;;;;;6.47;3.53;;;14.00;50.00;;;;;;4978649;28;89686;-34
2022/04/20 09:21:53;;;;;;;7.25;2.97;;;14.20;51.90;;;;;;4978882;28;89415;-35
2022/04/20 09:24:19;;;;;;;3.10;2.80;;;14.20;50.70;;;;;;4979000;28;88841;-34
2022/04/20 09:26:56;;;;;;;10.88;3.70;;;14.50;52.00;;;;;;4979353;28;89068;-35
2022/04/20 09:29:22;;;;;;;2.97;2.78;;;14.40;51.10;;;;;;4978361;28;90941;-34
2022/04/20 09:31:53;;;;;;;5.68;3.30;;;14.60;50.00;;;;;;4978005;28;90856;-38
2022/04/20 09:34:53;;;;;;;6.20;3.83;;;14.40;51.40;;;;;;4978877;28;87920;-34
2022/04/20 09:37:20;;;;;;;4.75;3.75;;;14.50;51.00;;;;;;4978371;28;90182;-35
2022/04/20 09:39:46;;;;;;;5.30;3.53;;;14.30;50.70;;;;;;4978078;28;89337;-34
2022/04/20 09:42:12;;;;;;;5.85;4.57;;;14.40;50.20;;;;;;4979053;28;89510;-36
2022/04/20 09:44:51;;;;;;;3.88;3.50;;;14.50;53.60;;;;;;4978028;28;88446;-36
2022/04/20 09:50:04;;;;;;;5.05;3.65;;;14.80;51.10;;;;;;4979446;28;90465;-34
2022/04/20 09:52:41;;;;;;;6.47;3.75;;;14.70;50.70;;;;;;4979324;28;88830;-33
2022/04/20 09:55:10;;;;;;;6.35;3.88;;;15.00;52.30;;;;;;4978867;28;90306;-34
2022/04/20 09:57:37;;;;;;;5.72;3.58;;;14.80;50.60;;;;;;4978480;28;92345;-34
2022/04/20 10:00:14;;;;;;;5.38;4.75;;;14.90;50.10;;;;;;4978196;28;90163;-34
2022/04/20 10:02:47;;;;;;;4.07;3.67;;;15.00;52.20;;;;;;4978294;28;89767;-33
2022/04/20 10:05:14;;;;;;;7.43;3.72;;;15.00;51.40;;;;;;4978662;28;89428;-37
2022/04/20 10:07:40;;;;;;;5.28;3.35;;;15.40;52.20;;;;;;4977762;28;90275;-33
2022/04/20 10:10:07;;;;;;;6.05;3.85;;;15.50;51.60;;;;;;4978629;28;89579;-33
2022/04/20 10:12:35;;;;;;;3.17;2.97;;;15.40;50.40;;;;;;4978177;28;89429;-35
2022/04/20 10:17:51;;;;;;;3.53;3.28;;;15.00;50.40;;;;;;4978232;28;90222;-35
2022/04/20 10:20:18;;;;;;;;;;;15.10;51.00;;;;;;4977664;28;90566;-36
2022/04/20 10:22:45;;;;;;;5.03;4.22;;;15.40;51.00;;;;;;4978548;28;90250;-38
2022/04/20 10:25:12;;;;;;;4.10;3.70;;;15.40;50.40;;;;;;4978696;28;88888;-34
2022/04/20 10:27:53;;;;;;;6.73;3.97;;;15.70;52.30;;;;;;4977575;28;91025;-34
2022/04/20 10:30:25;;;;;;;7.03;3.50;;;15.50;51.80;;;;;;4977778;28;92029;-33
2022/04/20 10:32:59;;;;;;;4.95;3.15;;;15.60;52.20;;;;;;4978018;28;89563;-33
2022/04/20 10:35:25;;;;;;;5.95;3.72;;;15.60;51.50;;;;;;4977786;28;89229;-34
2022/04/20 10:38:10;;;;;;;3.85;3.53;;;15.40;49.80;;;;;;4978181;28;89922;-33
2022/04/20 10:41:02;;;;;;;2.88;2.60;;;15.60;50.30;;;;;;4977362;28;90452;-34
2022/04/20 10:43:29;;;;;;;4.20;3.40;;;15.80;48.50;;;;;;4972391;28;90158;-37
2022/04/20 10:46:08;;;;;;;3.60;3.20;;;15.80;51.40;;;;;;4977381;28;90256;-34
2022/04/20 10:48:57;;;;;;;3.42;3.13;;;15.80;51.00;;;;;;4977908;28;90436;-41
2022/04/20 10:51:30;;;;;;;5.10;4.22;;;15.90;49.10;;;;;;4977538;28;89593;-37
2022/04/20 10:54:23;;;;;;;10.70;2.70;;;15.70;48.10;;;;;;4978068;28;89414;-39
2022/04/20 10:57:14;;;;;;;5.28;3.25;;;15.80;48.90;;;;;;4977574;28;89684;-33
2022/04/20 10:59:41;;;;;;;2.83;2.53;;;15.80;48.10;;;;;;4973163;28;90414;-38
2022/04/20 11:02:09;;;;;;;3.33;2.75;;;15.70;46.60;;;;;;4977584;28;91242;-34
2022/04/20 11:04:39;;;;;;;3.10;2.80;;;16.10;48.40;;;;;;4977440;28;90958;-37
2022/04/20 11:07:06;;;;;;;3.30;2.90;;;16.20;47.50;;;;;;4976303;28;89031;-35
2022/04/20 11:09:48;;;;;;;2.85;2.65;;;16.10;46.70;;;;;;4976307;28;90504;-34
2022/04/20 11:18:38;;;;;;;5.55;3.22;;;16.50;46.90;;;;;;4977872;28;88832;-35
2022/04/20 11:21:04;;;;;;;3.08;2.65;;;16.50;46.80;;;;;;4957828;28;90387;-33
2022/04/20 11:23:48;;;;;;;5.30;2.75;;;16.20;46.10;;;;;;4976896;28;90527;-34
2022/04/20 11:26:19;;;;;;;4.43;2.67;;;16.10;44.70;;;;;;4977063;28;89838;-36
2022/04/20 11:28:46;;;;;;;2.92;2.50;;;16.50;46.90;;;;;;4959442;28;89356;-33
2022/04/20 11:31:12;;;;;;;4.05;2.50;;;16.30;43.00;;;;;;4975540;28;89035;-33
2022/04/20 11:33:38;;;;;;;3.83;2.38;;;16.50;44.20;;;;;;4972536;28;90313;-34
2022/04/20 11:36:05;;;;;;;3.75;2.40;;;16.50;46.40;;;;;;4979409;28;89606;-37
2022/04/20 11:38:37;;;;;;;4.57;3.03;;;16.20;44.90;;;;;;4980135;28;90560;-34
2022/04/20 11:41:05;;;;;;;3.45;3.15;;;16.20;44.30;;;;;;4980459;28;91881;-36
2022/04/20 11:43:31;;;;;;;5.65;2.63;;;16.30;45.20;;;;;;4980824;28;89937;-34
2022/04/20 11:45:57;;;;;;;4.80;2.90;;;16.50;46.60;;;;;;4980557;28;89278;-36
2022/04/20 11:48:23;;;;;;;4.18;2.55;;;16.10;43.50;;;;;;4980769;28;89670;-35
2022/04/20 11:50:59;;;;;;;7.25;3.22;;;16.50;46.10;;;;;;4979883;28;89913;-34
2022/04/20 11:53:52;;;;;;;3.33;2.58;;;16.70;47.70;;;;;;4972952;28;90252;-35
2022/04/20 11:56:31;;;;;;;3.00;2.72;;;16.70;45.20;;;;;;4960063;28;90062;-33
2022/04/20 11:58:58;;;;;;;4.22;3.65;;;16.70;46.40;;;;;;4960271;28;89130;-35
2022/04/20 12:01:25;;;;;;;3.83;3.23;;;16.70;45.40;;;;;;4959767;28;90250;-36
2022/04/20 12:03:51;;;;;;;2.90;2.60;;;16.40;45.90;;;;;;4959402;28;90706;-35
2022/04/20 12:06:18;;;;;;;4.30;3.17;;;16.60;45.80;;;;;;4960063;28;90145;-35
2022/04/20 12:08:44;;;;;;;4.15;3.15;;;16.60;47.60;;;;;;4960067;28;90687;-32
2022/04/20 12:11:11;;;;;;;3.47;3.17;;;16.50;46.80;;;;;;4960132;28;90091;-34
2022/04/20 12:13:39;;;;;;;3.97;3.42;;;16.40;45.50;;;;;;4959428;28;91537;-37
2022/04/20 12:16:08;;;;;;;3.65;3.22;;;16.60;46.80;;;;;;4959633;28;89723;-37
2022/04/20 12:18:36;;;;;;;3.92;3.25;;;16.60;47.00;;;;;;4960053;28;89737;-39
2022/04/20 12:21:03;;;;;;;3.92;3.30;;;16.70;48.40;;;;;;4960019;28;90339;-34
2022/04/20 12:23:35;;;;;;;7.87;4.07;;;16.80;48.40;;;;;;4960011;28;89480;-34
2022/04/20 12:26:07;;;;;;;4.45;3.85;;;16.80;48.20;;;;;;4960251;28;89480;-35
2022/04/20 12:28:41;;;;;;;4.50;4.07;;;16.90;49.60;;;;;;4959280;28;90557;-35
2022/04/20 12:31:12;;;;;;;5.40;4.28;;;16.60;48.30;;;;;;4999919;22;90714;-36
2022/04/20 12:33:39;;;;;;;5.25;4.75;;;16.70;48.10;;;;;;4979454;28;89650;-35
2022/04/20 12:36:11;;;;;;;4.57;4.18;;;16.70;48.10;;;;;;4979996;28;90203;-34
2022/04/20 12:38:44;;;;;;;7.95;4.07;;;16.80;47.20;;;;;;4979386;28;88349;-34
2022/04/20 12:41:41;;;;;;;6.18;3.60;;;16.70;48.80;;;;;;4978545;28;91687;-36
2022/04/20 12:44:35;;;;;;;5.95;4.53;;;16.60;48.40;;;;;;4977828;28;90009;-34
2022/04/20 12:47:14;;;;;;;4.97;4.47;;;16.60;50.60;;;;;;4979313;28;89646;-38
2022/04/20 12:49:48;;;;;;;7.00;5.18;;;16.80;48.50;;;;;;4979531;28;87824;-34
2022/04/20 12:52:19;;;;;;;5.00;4.50;;;16.60;48.10;;;;;;4978770;28;90899;-35
2022/04/20 12:54:57;;;;;;;4.75;4.30;;;16.80;50.10;;;;;;4977753;28;90763;-36
2022/04/20 13:03:20;;;;;;;4.18;3.78;;;16.90;48.20;;;;;;4979068;28;90438;-35
2022/04/20 13:05:46;;;;;;;7.80;4.38;;;16.90;49.80;;;;;;4978480;28;89663;-35
2022/04/20 13:08:14;;;;;;;4.75;4.03;;;17.00;49.90;;;;;;4979254;28;89751;-35
2022/04/20 13:10:43;;;;;;;5.15;4.75;;;17.10;51.10;;;;;;4979137;28;89805;-35
2022/04/20 13:13:10;;;;;;;4.80;4.30;;;16.80;49.30;;;;;;4979182;28;90228;-34
2022/04/20 13:15:36;;;;;;;5.60;5.15;;;16.60;48.80;;;;;;4976995;28;90541;-34
2022/04/20 13:18:02;;;;;;;13.02;5.85;;;16.80;51.00;;;;;;4978216;28;89366;-37
2022/04/20 13:20:29;;;;;;;6.32;4.30;;;16.50;49.50;;;;;;4978263;28;90362;-34
2022/04/20 13:22:55;;;;;;;4.93;4.53;;;16.70;49.90;;;;;;4977563;28;89999;-39
2022/04/20 13:28:06;;;;;;;6.43;4.95;;;16.90;49.40;;;;;;4978210;28;90374;-37
2022/04/20 13:30:36;;;;;;;5.35;4.78;;;16.80;50.60;;;;;;4978441;28;89112;-39
2022/04/20 13:33:08;;;;;;;5.32;4.82;;;16.70;50.90;;;;;;4979279;28;89990;-34